Time;durP1;ratioP1;P1;durP2;ratioP2;P2;SDS_P1;SDS_P2;PMS_P1;PMS_P2;Temp;Humidity;BMP_temperature;BMP_pressure;BME280_temperature;BME280_humidity;BME280_pressure;Samples;Min_cycle;Max_cycle;Signal;HPM_P1;HPM_P2
2022/02/10 00:20:42;;;;;;;;;;;;;;;5.12;100.00;101747.72;2568895;30;136976;-40
2022/02/10 00:36:08;;;;;;;;;;;;;;;4.85;100.00;101741.34;2568899;30;137917;-40
2022/02/10 00:38:41;;;;;;;;;;;;;;;4.73;100.00;101728.03;2568110;30;138544;-40
2022/02/10 00:41:11;;;;;;;;;;;;;;;4.71;100.00;101732.75;2567047;30;137246;-40
2022/02/10 00:43:39;;;;;;;;;;;;;;;4.71;100.00;101723.81;2568978;30;137371;-40
2022/02/10 00:46:07;;;;;;;;;;;;;;;4.70;100.00;101722.94;2568814;30;137711;-40
2022/02/10 00:48:36;;;;;;;;;;;;;;;4.70;100.00;101722.94;2569214;30;137643;-40
2022/02/10 00:51:05;;;;;;;;;;;;;;;4.65;100.00;101714.44;2568530;30;136653;-40
2022/02/10 00:53:38;;;;;;;;;;;;;;;4.63;100.00;101718.28;2567501;30;139190;-40
2022/02/10 00:56:08;;;;;;;;;;;;;;;4.60;100.00;101714.03;2568844;30;137124;-40
2022/02/10 00:58:39;;;;;;;;;;;;;;;4.53;100.00;101719.19;2567424;30;139365;-40
2022/02/10 01:31:55;;;;;;;;;;;;;;;3.95;100.00;101677.06;2567351;30;137350;-40
2022/02/10 01:34:23;;;;;;;;;;;;;;;3.88;100.00;101682.25;2569199;30;137211;-40
2022/02/10 01:36:51;;;;;;;;;;;;;;;3.78;100.00;101679.56;2567215;30;138606;-40
2022/02/10 01:39:24;;;;;;;;;;;;;;;3.70;100.00;101676.72;2575113;30;137440;-40
2022/02/10 02:03:15;;;;;;;;;;;;;;;3.59;100.00;101659.72;2566407;30;138129;-40
2022/02/10 02:04:10;;;;;;;;;;;;;;;3.78;100.00;101654.41;2566674;30;138173;-40
2022/02/10 02:06:44;;;;;;;;;;;;;;;3.82;100.00;101653.97;2569970;30;136933;-40
2022/02/10 02:09:15;;;;;;;;;;;;;;;3.84;100.00;101657.38;2568421;30;138258;-40
2022/02/10 02:11:44;;;;;;;;;;;;;;;3.89;100.00;101649.69;2571733;30;137053;-40
2022/02/10 02:14:14;;;;;;;;;;;;;;;3.95;100.00;101645.53;2568845;30;138276;-40
2022/02/10 02:16:45;;;;;;;;;;;;;;;4.07;100.00;101639.94;2568947;30;136985;-40
2022/02/10 02:19:13;;;;;;;;;;;;;;;4.12;100.00;101641.19;2570815;30;139816;-40
2022/02/10 02:21:41;;;;;;;;;;;;;;;4.22;100.00;101632.19;2569208;30;137219;-40
2022/02/10 02:24:13;;;;;;;;;;;;;;;4.36;100.00;101634.38;2570770;30;138212;-40
2022/02/10 02:26:41;;;;;;;;;;;;;;;4.35;100.00;101631.81;2570978;30;137326;-40
2022/02/10 02:29:11;;;;;;;;;;;;;;;4.38;100.00;101632.38;2569380;30;139154;-40
2022/02/10 02:31:45;;;;;;;;;;;;;;;4.39;100.00;101623.28;2570010;30;137162;-40
2022/02/10 03:04:46;;;;;;;;;;;;;;;4.49;100.00;101568.28;2570226;30;136916;-40
2022/02/10 03:07:41;;;;;;;;;;;;;;;4.39;100.00;101558.41;2568526;30;138457;-40
2022/02/10 03:10:26;;;;;;;;;;;;;;;4.32;100.00;101554.66;2571110;30;137092;-40
2022/02/10 03:12:55;;;;;;;;;;;;;;;4.25;100.00;101548.16;2566670;30;138379;-40
2022/02/10 03:15:36;;;;;;;;;;;;;;;4.29;100.00;101542.28;2572796;30;137031;-40
2022/02/10 03:21:06;;;;;;;;;;;;;;;4.07;100.00;101535.47;2567080;30;136962;-40
2022/02/10 04:02:52;;;;;;;;;;;;;;;3.11;100.00;101499.72;2570264;30;137034;-40
2022/02/10 04:08:17;;;;;;;;;;;;;;;2.91;100.00;101500.75;2569941;30;138351;-40
2022/02/10 04:16:30;;;;;;;;;;;;;;;2.75;100.00;101498.66;2569173;30;137191;-40
2022/02/10 04:21:08;;;;;;;;;;;;;;;2.67;100.00;101502.94;2570671;30;137507;-40
2022/02/10 04:56:24;;;;;;;;;;;;;;;2.97;100.00;101508.25;2568286;30;139098;-40
2022/02/10 05:17:48;;;;;;;;;;;;;;;3.38;100.00;101492.66;2570705;30;138338;-40
2022/02/10 05:31:49;;;;;;;;;;;;;;;3.54;100.00;101477.66;2570680;30;137771;-40
2022/02/10 05:34:11;;;;;;;;;;;;;;;3.56;100.00;101475.66;2567589;30;138392;-40
2022/02/10 05:36:40;;;;;;;;;;;;;;;3.59;100.00;101468.13;2570839;30;137863;-40
2022/02/10 05:39:20;;;;;;;;;;;;;;;3.59;100.00;101470.81;2570269;30;137272;-40
2022/02/10 05:55:03;;;;;;;;;;;;;;;3.63;100.00;101478.59;2567039;30;137837;-40
2022/02/10 06:55:10;;;;;;;;;;;;;;;3.85;100.00;101483.59;2570557;30;137161;-40
2022/02/10 08:57:17;;;;;;;;;;;;;;;5.46;100.00;101560.25;2569111;30;136797;-40
2022/02/10 09:19:00;;;;;;;;;;;;;;;6.17;100.00;101574.47;2568815;30;136777;-39
2022/02/10 09:53:48;;;;;;;;;;;;;;;6.23;100.00;101591.91;2568116;30;138126;-39
2022/02/10 10:00:33;;;;;;;;;;;;;;;6.37;100.00;101586.88;2567031;30;137353;-39
2022/02/10 10:03:11;;;;;;;;;;;;;;;6.37;100.00;101581.47;2568842;30;136863;-40
2022/02/10 10:05:51;;;;;;;;;;;;;;;6.45;100.00;101585.03;2568293;30;138308;-40
2022/02/10 10:11:04;;;;;;;;;;;;;;;6.40;100.00;101595.53;2567691;30;139096;-39
2022/02/10 10:13:54;;;;;;;;;;;;;;;6.42;100.00;101595.34;2568115;30;137060;-39
2022/02/10 10:19:15;;;;;;;;;;;;;;;6.37;100.00;101598.59;2567179;30;137092;-39
2022/02/10 10:22:32;;;;;;;;;;;;;;;6.31;100.00;101604.66;2567871;30;138861;-39
2022/02/10 10:25:02;;;;;;;;;;;;;;;6.25;100.00;101608.88;2568477;30;137045;-40
2022/02/10 10:27:53;;;;;;;;;;;;;;;6.22;100.00;101613.78;2568668;30;138317;-39
2022/02/10 10:56:20;;;;;;;;;;;;;;;6.14;100.00;101612.75;2568045;30;137281;-39
2022/02/10 11:38:07;;;;;;;;;;;;;;;6.16;100.00;101612.56;2568578;30;137002;-39
2022/02/10 11:40:54;;;;;;;;;;;;;;;6.15;100.00;101608.16;2568111;30;139701;-39
2022/02/10 11:43:44;;;;;;;;;;;;;;;6.15;100.00;101619.00;2565758;30;137139;-40
2022/02/10 12:00:45;;;;;;;;;;;;;;;6.11;100.00;101615.78;2569505;30;137191;-39
2022/02/10 12:43:48;;;;;;;;;;;;;;;5.99;100.00;101626.03;2569183;30;138543;-39
2022/02/10 13:48:04;;;;;;;;;;;;;;;6.60;100.00;101627.75;2568196;30;138419;-39
2022/02/10 14:17:51;;;;;;;;;;;;;;;7.43;100.00;101611.53;2566449;30;137155;-37
2022/02/10 14:21:05;;;;;;;;;;;;;;;7.43;100.00;101606.91;2568225;30;139274;-37
2022/02/10 14:25:47;;;;;;;;;;;;;;;7.36;100.00;101622.22;2568509;30;139189;-37
2022/02/10 14:28:18;;;;;;;;;;;;;;;7.43;100.00;101611.53;2568859;30;136837;-37
2022/02/10 14:30:46;;;;;;;;;;;;;;;7.38;100.00;101603.00;2568962;30;139392;-37
2022/02/10 14:33:21;;;;;;;;;;;;;;;7.40;100.00;101622.69;2567742;30;137068;-37
2022/02/10 14:35:58;;;;;;;;;;;;;;;7.42;100.00;101609.78;2568452;30;137217;-37
2022/02/10 14:39:16;;;;;;;;;;;;;;;7.47;100.00;101613.69;2568924;30;137172;-37
2022/02/10 16:17:58;;;;;;;;;;;;;;;6.23;100.00;101664.25;2569220;30;136680;-37
2022/02/10 16:20:30;;;;;;;;;;;;;;;6.18;100.00;101668.31;2568690;30;139205;-36
2022/02/10 16:23:03;;;;;;;;;;;;;;;6.18;100.00;101662.88;2569046;30;137119;-37
2022/02/10 16:25:34;;;;;;;;;;;;;;;6.14;100.00;101672.34;2568556;30;139114;-37
2022/02/10 16:30:50;;;;;;;;;;;;;;;6.14;100.00;101666.06;2569679;30;138368;-37
2022/02/10 16:33:41;;;;;;;;;;;;;;;6.14;100.00;101661.50;2569248;30;137304;-37
2022/02/10 16:36:30;;;;;;;;;;;;;;;6.02;100.00;101657.38;2568264;30;137287;-37
2022/02/10 16:39:18;;;;;;;;;;;;;;;5.92;100.00;101656.63;2566649;30;137129;-37
2022/02/10 16:42:14;;;;;;;;;;;;;;;5.83;100.00;101656.56;2568271;30;137520;-37
2022/02/10 16:45:02;;;;;;;;;;;;;;;5.74;100.00;101655.69;2566646;30;138420;-37
2022/02/10 16:47:50;;;;;;;;;;;;;;;5.70;100.00;101653.47;2568853;30;138398;-37
2022/02/10 16:50:43;;;;;;;;;;;;;;;5.69;100.00;101649.88;2565936;30;137232;-37
2022/02/10 16:53:31;;;;;;;;;;;;;;;5.63;100.00;101647.81;2568933;30;137994;-37
2022/02/10 16:56:24;;;;;;;;;;;;;;;5.58;100.00;101645.63;2569045;30;137029;-37
2022/02/10 16:59:28;;;;;;;;;;;;;;;5.55;100.00;101662.16;2568580;30;137293;-37
2022/02/10 17:25:30;;;;;;;;;;;;;;;5.40;100.00;101663.75;2570975;30;137208;-37
2022/02/10 17:28:03;;;;;;;;;;;;;;;5.40;100.00;101658.34;2569740;30;137493;-37
2022/02/10 17:33:33;;;;;;;;;;;;;;;5.26;100.00;101652.47;2569052;30;140153;-37
2022/02/10 17:36:12;;;;;;;;;;;;;;;5.21;100.00;101643.97;2569275;30;137373;-37
2022/02/10 17:52:13;;;;;;;;;;;;;;;5.04;100.00;101649.28;2569095;30;137822;-37
2022/02/10 17:54:42;;;;;;;;;;;;;;;4.99;100.00;101656.97;2568029;30;138540;-37
2022/02/10 17:57:10;;;;;;;;;;;;;;;4.94;100.00;101651.19;2569649;30;137171;-37
2022/02/10 17:59:38;;;;;;;;;;;;;;;4.93;100.00;101652.19;2569130;30;138277;-37
2022/02/10 18:02:06;;;;;;;;;;;;;;;4.86;100.00;101657.38;2567563;30;137948;-37
2022/02/10 18:04:34;;;;;;;;;;;;;;;4.85;100.00;101654.84;2567330;30;138431;-37
2022/02/10 18:07:03;;;;;;;;;;;;;;;4.86;100.00;101661.94;2568293;30;137169;-37
2022/02/10 18:09:58;;;;;;;;;;;;;;;4.82;100.00;101655.16;2567511;30;138365;-37
2022/02/10 18:15:14;;;;;;;;;;;;;;;4.77;100.00;101662.84;2567743;30;137115;-37
2022/02/10 18:17:49;;;;;;;;;;;;;;;4.73;100.00;101671.25;2568340;30;137171;-37
2022/02/10 18:20:23;;;;;;;;;;;;;;;4.77;100.00;101671.81;2568251;30;139358;-37
2022/02/10 18:25:31;;;;;;;;;;;;;;;4.77;100.00;101679.94;2567461;30;138233;-37
2022/02/10 19:01:43;;;;;;;;;;;;;;;3.93;100.00;101736.66;2569152;30;137116;-37
2022/02/10 19:09:38;;;;;;;;;;;;;;;3.81;100.00;101727.88;2567176;30;138312;-37
2022/02/10 19:12:14;;;;;;;;;;;;;;;3.78;100.00;101728.16;2567951;30;137094;-37
2022/02/10 19:14:47;;;;;;;;;;;;;;;3.74;100.00;101734.84;2567582;30;137908;-36
2022/02/10 19:17:15;;;;;;;;;;;;;;;3.67;100.00;101741.81;2568883;30;136879;-37
2022/02/10 19:19:43;;;;;;;;;;;;;;;3.68;100.00;101748.91;2567851;30;137392;-36
2022/02/10 19:22:11;;;;;;;;;;;;;;;3.66;100.00;101745.50;2566883;30;137192;-37
2022/02/10 19:24:39;;;;;;;;;;;;;;;3.64;100.00;101740.25;2569026;30;137375;-36
2022/02/10 19:27:07;;;;;;;;;;;;;;;3.65;100.00;101746.50;2567817;30;136762;-37
2022/02/10 19:29:35;;;;;;;;;;;;;;;3.56;100.00;101749.06;2567981;30;138331;-37
2022/02/10 19:32:05;;;;;;;;;;;;;;;3.60;100.00;101747.78;2566833;30;136957;-37
2022/02/10 19:34:35;;;;;;;;;;;;;;;3.59;100.00;101753.34;2567809;30;137370;-37
2022/02/10 19:37:21;;;;;;;;;;;;;;;3.54;100.00;101758.28;2569739;30;136730;-37
2022/02/10 19:42:48;;;;;;;;;;;;;;;3.58;100.00;101760.56;2568256;30;136673;-39
2022/02/10 19:45:16;;;;;;;;;;;;;;;3.55;100.00;101762.69;2567860;30;137095;-39
2022/02/10 19:47:44;;;;;;;;;;;;;;;3.63;100.00;101767.38;2567299;30;138114;-39
2022/02/10 19:50:15;;;;;;;;;;;;;;;3.55;100.00;101763.56;2567547;30;136821;-39
2022/02/10 19:52:50;;;;;;;;;;;;;;;3.48;100.00;101765.13;2567321;30;137678;-39
2022/02/10 19:55:21;;;;;;;;;;;;;;;3.49;100.00;101772.22;2568424;30;138119;-39
2022/02/10 19:57:51;;;;;;;;;;;;;;;3.47;100.00;101767.97;2566815;30;139052;-39
2022/02/10 20:00:24;;;;;;;;;;;;;;;3.45;100.00;101773.50;2568764;30;136901;-39
2022/02/10 20:02:53;;;;;;;;;;;;;;;3.42;100.00;101763.84;2568003;30;137074;-39
2022/02/10 20:05:25;;;;;;;;;;;;;;;3.40;100.00;101775.75;2566652;30;136949;-39
2022/02/10 20:07:53;;;;;;;;;;;;;;;3.41;100.00;101781.03;2568460;30;137507;-39
2022/02/10 20:10:21;;;;;;;;;;;;;;;3.43;100.00;101772.78;2568156;30;137345;-40
2022/02/10 20:12:49;;;;;;;;;;;;;;;3.37;100.00;101778.75;2568032;30;138215;-39
2022/02/10 20:15:21;;;;;;;;;;;;;;;3.34;100.00;101779.91;2567492;30;137824;-39
2022/02/10 20:17:51;;;;;;;;;;;;;;;3.36;100.00;101788.69;2568890;30;137494;-39
2022/02/10 20:20:19;;;;;;;;;;;;;;;3.34;100.00;101787.13;2568460;30;137550;-39
2022/02/10 20:22:47;;;;;;;;;;;;;;;3.22;100.00;101795.38;2568932;30;138975;-39
2022/02/10 20:25:35;;;;;;;;;;;;;;;3.17;100.00;101800.28;2569637;30;137140;-39
2022/02/10 20:28:03;;;;;;;;;;;;;;;3.17;100.00;101801.16;2567912;30;139957;-39
2022/02/10 20:30:31;;;;;;;;;;;;;;;3.13;100.00;101796.19;2568265;30;137052;-39
2022/02/10 20:32:59;;;;;;;;;;;;;;;3.04;100.00;101797.03;2567419;30;137387;-39
2022/02/10 20:35:27;;;;;;;;;;;;;;;3.04;100.00;101799.72;2569678;30;137156;-39
2022/02/10 20:38:00;;;;;;;;;;;;;;;3.00;100.00;101796.44;2570691;30;138308;-39
2022/02/10 20:40:28;;;;;;;;;;;;;;;2.98;100.00;101801.13;2566440;30;137233;-39
2022/02/10 20:43:03;;;;;;;;;;;;;;;2.95;100.00;101799.56;2568593;30;138395;-39
2022/02/10 20:45:33;;;;;;;;;;;;;;;2.91;100.00;101808.06;2566353;30;138339;-39
2022/02/10 20:48:02;;;;;;;;;;;;;;;2.83;100.00;101797.97;2567982;30;138274;-39
2022/02/10 20:50:30;;;;;;;;;;;;;;;2.79;100.00;101792.00;2569597;30;136976;-39
2022/02/10 20:52:58;;;;;;;;;;;;;;;2.78;100.00;101805.63;2568580;30;138376;-39
2022/02/10 20:55:25;;;;;;;;;;;;;;;2.81;100.00;101808.03;2567275;30;137177;-39
2022/02/10 20:57:57;;;;;;;;;;;;;;;2.78;100.00;101809.16;2568579;30;138376;-39
2022/02/10 21:00:30;;;;;;;;;;;;;;;2.79;100.00;101801.94;2568963;30;137904;-39
2022/02/10 21:02:58;;;;;;;;;;;;;;;2.78;100.00;101811.00;2568031;30;138175;-39
2022/02/10 21:05:35;;;;;;;;;;;;;;;2.76;100.00;101807.59;2567638;30;137005;-39
2022/02/10 21:10:41;;;;;;;;;;;;;;;2.71;100.00;101806.16;2567971;30;137034;-39
2022/02/10 21:13:11;;;;;;;;;;;;;;;2.71;100.00;101806.16;2567784;30;138597;-39
2022/02/10 21:15:48;;;;;;;;;;;;;;;2.68;100.00;101801.06;2568565;30;137353;-39
2022/02/10 21:18:17;;;;;;;;;;;;;;;2.72;100.00;101801.63;2566336;30;139157;-39
2022/02/10 21:20:45;;;;;;;;;;;;;;;2.72;100.00;101807.88;2569239;30;137204;-39
2022/02/10 21:25:48;;;;;;;;;;;;;;;2.70;100.00;101807.16;2568476;30;137002;-39
2022/02/10 21:28:22;;;;;;;;;;;;;;;2.73;100.00;101808.72;2567360;30;139116;-39
2022/02/10 21:30:53;;;;;;;;;;;;;;;2.77;100.00;101817.38;2568326;30;137352;-39
2022/02/10 21:33:42;;;;;;;;;;;;;;;2.70;100.00;101809.84;2568711;30;138926;-39
2022/02/10 21:39:17;;;;;;;;;;;;;;;2.74;100.00;101818.50;2566053;30;138176;-39
2022/02/10 22:00:38;;;;;;;;;;;;;;;2.64;100.00;101806.84;2567939;30;138446;-39
2022/02/10 22:19:07;;;;;;;;;;;;;;;2.69;100.00;101812.66;2568332;30;136995;-39
2022/02/10 22:21:43;;;;;;;;;;;;;;;2.63;100.00;101803.28;2567768;30;139100;-39
2022/02/10 22:24:14;;;;;;;;;;;;;;;2.58;100.00;101800.16;2566673;30;136850;-39
2022/02/10 22:26:43;;;;;;;;;;;;;;;2.64;100.00;101804.16;2566860;30;138696;-39
2022/02/10 22:29:19;;;;;;;;;;;;;;;2.57;100.00;101810.09;2568283;30;138030;-39
2022/02/10 22:34:28;;;;;;;;;;;;;;;2.51;100.00;101813.28;2568842;30;137111;-39
2022/02/10 22:36:59;;;;;;;;;;;;;;;2.46;100.00;101807.47;2568494;30;138611;-39
2022/02/10 22:39:29;;;;;;;;;;;;;;;2.48;100.00;101810.88;2568166;30;138023;-39
2022/02/10 22:41:57;;;;;;;;;;;;;;;2.48;100.00;101810.88;2568294;30;138287;-39
2022/02/10 22:44:25;;;;;;;;;;;;;;;2.38;100.00;101805.44;2569064;30;137063;-39
2022/02/10 22:46:53;;;;;;;;;;;;;;;2.40;100.00;101811.56;2566779;30;138328;-39
2022/02/10 22:49:21;;;;;;;;;;;;;;;2.47;100.00;101808.34;2568145;30;137396;-40
2022/02/10 22:51:49;;;;;;;;;;;;;;;2.40;100.00;101806.19;2567717;30;138388;-39
2022/02/10 22:54:17;;;;;;;;;;;;;;;2.38;100.00;101794.66;2568042;30;137293;-39
2022/02/10 22:56:45;;;;;;;;;;;;;;;2.36;100.00;101796.66;2569163;30;139184;-39
2022/02/10 22:59:14;;;;;;;;;;;;;;;2.34;100.00;101798.63;2566625;30;136725;-39
2022/02/10 23:01:42;;;;;;;;;;;;;;;2.38;100.00;101799.22;2567323;30;137367;-39
2022/02/10 23:04:10;;;;;;;;;;;;;;;2.32;100.00;101792.50;2565608;30;137202;-39
2022/02/10 23:06:38;;;;;;;;;;;;;;;2.26;100.00;101796.63;2567714;30;139439;-39
2022/02/10 23:09:30;;;;;;;;;;;;;;;2.26;100.00;101799.31;2568257;30;136925;-40
2022/02/10 23:11:58;;;;;;;;;;;;;;;2.23;100.00;101804.94;2568182;30;137985;-39
2022/02/10 23:14:26;;;;;;;;;;;;;;;2.26;100.00;101812.78;2568357;30;137283;-39
2022/02/10 23:16:56;;;;;;;;;;;;;;;2.30;100.00;101807.97;2568636;30;138521;-39
2022/02/10 23:19:25;;;;;;;;;;;;;;;2.34;100.00;101804.00;2567599;30;138066;-39
2022/02/10 23:21:53;;;;;;;;;;;;;;;2.36;100.00;101811.97;2568233;30;137261;-39
2022/02/10 23:24:21;;;;;;;;;;;;;;;2.38;100.00;101812.69;2568467;30;137348;-39
2022/02/10 23:26:49;;;;;;;;;;;;;;;2.34;100.00;101809.41;2568843;30;139376;-39
2022/02/10 23:29:17;;;;;;;;;;;;;;;2.38;100.00;101810.81;2566649;30;137579;-39
2022/02/10 23:31:45;;;;;;;;;;;;;;;2.42;100.00;101812.28;2565800;30;138678;-39
2022/02/10 23:34:13;;;;;;;;;;;;;;;2.36;100.00;101818.19;2567665;30;137161;-39
2022/02/10 23:36:52;;;;;;;;;;;;;;;2.37;100.00;101824.44;2568961;30;138238;-39
2022/02/10 23:39:28;;;;;;;;;;;;;;;2.32;100.00;101824.84;2568370;30;136929;-39
2022/02/10 23:44:36;;;;;;;;;;;;;;;2.23;100.00;101813.03;2565318;30;137290;-39
2022/02/10 23:47:06;;;;;;;;;;;;;;;2.15;100.00;101816.41;2569913;30;137014;-39
2022/02/10 23:49:36;;;;;;;;;;;;;;;2.13;100.00;101821.06;2568009;30;137980;-39
2022/02/10 23:52:07;;;;;;;;;;;;;;;2.09;100.00;101819.59;2567996;30;138191;-39
2022/02/10 23:54:36;;;;;;;;;;;;;;;2.04;100.00;101813.75;2568220;30;136909;-39
2022/02/10 23:57:57;;;;;;;;;;;;;;;1.95;100.00;101809.19;2569622;30;138521;-39
